Time;durP1;ratioP1;P1;durP2;ratioP2;P2;SDS_P1;SDS_P2;PMS_P1;PMS_P2;Temp;Humidity;BMP_temperature;BMP_pressure;BME280_temperature;BME280_humidity;BME280_pressure;Samples;Min_cycle;Max_cycle;Signal;HPM_P1;HPM_P2
2021/04/04 00:00:15;;;;;;;;;;;25.90;37.70;;;;;;5133773;27;19998;-58
2021/04/04 00:02:42;;;;;;;;;;;25.90;37.70;;;;;;5133607;27;19915;-59
2021/04/04 00:05:09;;;;;;;;;;;25.90;37.70;;;;;;5115025;27;19964;-58
2021/04/04 00:07:35;;;;;;;;;;;25.80;37.60;;;;;;5133773;27;19911;-59
2021/04/04 00:10:01;;;;;;;;;;;25.90;37.80;;;;;;5133812;27;20261;-58
2021/04/04 00:12:26;;;;;;;;;;;25.80;37.70;;;;;;5115530;28;19908;-58
2021/04/04 00:14:52;;;;;;;;;;;25.80;37.70;;;;;;5133810;27;19911;-58
2021/04/04 00:17:18;;;;;;;;;;;25.80;37.80;;;;;;5115274;27;19911;-58
2021/04/04 00:19:44;;;;;;;;;;;25.80;37.80;;;;;;5133796;27;19922;-59
2021/04/04 00:22:10;;;;;;;;;;;25.80;37.80;;;;;;5133849;27;19920;-59
2021/04/04 00:24:37;;;;;;;;;;;25.70;37.80;;;;;;5133531;27;19926;-58
2021/04/04 00:27:03;;;;;;;;;;;25.70;37.80;;;;;;5133324;27;20014;-58
2021/04/04 00:29:29;;;;;;;;;;;25.70;37.90;;;;;;5133606;27;19919;-59
2021/04/04 00:31:55;;;;;;;;;;;25.70;37.90;;;;;;5133261;28;19911;-59
2021/04/04 00:34:22;;;;;;;;;;;25.70;38.00;;;;;;5132966;27;19918;-59
2021/04/04 00:36:48;;;;;;;;;;;25.70;38.00;;;;;;5133747;28;19915;-58
2021/04/04 00:39:14;;;;;;;;;;;25.60;38.00;;;;;;5133470;28;19912;-58
2021/04/04 00:41:40;;;;;;;;;;;25.60;38.00;;;;;;5133440;28;19912;-58
2021/04/04 00:44:07;;;;;;;;;;;25.60;38.10;;;;;;5133382;28;19922;-58
2021/04/04 00:46:33;;;;;;;;;;;25.60;38.10;;;;;;5133365;28;19958;-58
2021/04/04 00:48:59;;;;;;;;;;;25.60;38.10;;;;;;5133381;28;20348;-58
2021/04/04 00:51:25;;;;;;;;;;;25.60;38.10;;;;;;5133281;28;19918;-58
2021/04/04 00:53:51;;;;;;;;;;;25.50;38.10;;;;;;5133422;28;19947;-58
2021/04/04 00:56:17;;;;;;;;;;;25.50;38.20;;;;;;5133359;28;19958;-58
2021/04/04 00:58:43;;;;;;;;;;;25.50;38.20;;;;;;5114863;28;19911;-58
2021/04/04 01:01:09;;;;;;;;;;;25.50;38.20;;;;;;5133336;28;19907;-58
2021/04/04 01:03:35;;;;;;;;;;;25.50;38.30;;;;;;5132742;28;20369;-58
2021/04/04 01:06:06;;;;;;;;;;;25.50;38.30;;;;;;5132864;28;19919;-58
2021/04/04 01:08:32;;;;;;;;;;;25.50;38.30;;;;;;5114554;28;19919;-58
2021/04/04 01:10:58;;;;;;;;;;;25.50;38.40;;;;;;5133178;28;19959;-58
2021/04/04 01:13:27;;;;;;;;;;;25.50;38.40;;;;;;5133074;28;19930;-59
2021/04/04 01:15:56;;;;;;;;;;;25.50;38.40;;;;;;5132916;28;20002;-60
2021/04/04 01:18:29;;;;;;;;;;;25.40;38.40;;;;;;5111513;28;19974;-58
2021/04/04 01:21:00;;;;;;;;;;;25.40;38.40;;;;;;5133316;28;20310;-58
2021/04/04 01:23:45;;;;;;;;;;;25.40;38.40;;;;;;5133061;28;20390;-58
2021/04/04 01:26:11;;;;;;;;;;;25.40;38.40;;;;;;5133035;28;20414;-59
2021/04/04 01:28:42;;;;;;;;;;;25.40;38.50;;;;;;5132692;28;19907;-58
2021/04/04 01:31:08;;;;;;;;;;;25.40;38.50;;;;;;5132943;28;19912;-59
2021/04/04 01:33:35;;;;;;;;;;;25.30;38.50;;;;;;5133239;28;20646;-58
2021/04/04 01:36:03;;;;;;;;;;;25.30;38.50;;;;;;5133404;28;20611;-58
2021/04/04 01:38:30;;;;;;;;;;;25.30;38.50;;;;;;5133292;28;19919;-58
2021/04/04 01:40:58;;;;;;;;;;;25.30;38.50;;;;;;5133046;28;19927;-58
2021/04/04 01:43:25;;;;;;;;;;;25.30;38.50;;;;;;5132807;28;20264;-59
2021/04/04 01:45:52;;;;;;;;;;;25.30;38.50;;;;;;5133690;27;19912;-58
2021/04/04 01:48:19;;;;;;;;;;;25.30;38.60;;;;;;5136359;27;20318;-58
2021/04/04 01:50:45;;;;;;;;;;;25.30;38.50;;;;;;5136204;27;19960;-60
2021/04/04 01:53:12;;;;;;;;;;;25.30;38.50;;;;;;5136478;27;19912;-58
2021/04/04 01:55:39;;;;;;;;;;;25.20;38.50;;;;;;5118270;27;20041;-59
2021/04/04 01:58:07;;;;;;;;;;;25.20;38.50;;;;;;5136177;27;19960;-59
2021/04/04 02:00:33;;;;;;;;;;;25.20;38.50;;;;;;5136139;27;19912;-59
2021/04/04 02:02:59;;;;;;;;;;;25.20;38.50;;;;;;5136630;27;19922;-59
2021/04/04 02:05:25;;;;;;;;;;;25.20;38.50;;;;;;5136639;27;20018;-59
2021/04/04 02:07:52;;;;;;;;;;;25.20;38.60;;;;;;5136343;27;19912;-59
2021/04/04 02:10:22;;;;;;;;;;;25.20;38.60;;;;;;5136025;27;19907;-59
2021/04/04 02:12:51;;;;;;;;;;;25.10;38.60;;;;;;5135745;27;19915;-58
2021/04/04 02:15:18;;;;;;;;;;;25.10;38.60;;;;;;5135862;27;20352;-58
2021/04/04 02:17:47;;;;;;;;;;;25.10;38.60;;;;;;5135776;27;19915;-58
2021/04/04 02:20:13;;;;;;;;;;;25.10;38.70;;;;;;5135794;27;19911;-59
2021/04/04 02:22:40;;;;;;;;;;;25.10;38.70;;;;;;5135455;27;19923;-59
2021/04/04 02:25:10;;;;;;;;;;;25.10;38.70;;;;;;5135962;27;20320;-59
2021/04/04 02:27:36;;;;;;;;;;;25.10;38.80;;;;;;5135674;27;19911;-58
2021/04/04 02:30:04;;;;;;;;;;;25.10;38.80;;;;;;5135780;27;19914;-58
2021/04/04 02:32:30;;;;;;;;;;;25.10;38.80;;;;;;5135563;27;19912;-59
2021/04/04 02:34:58;;;;;;;;;;;25.10;38.90;;;;;;5135380;27;19970;-58
2021/04/04 02:37:24;;;;;;;;;;;25.10;38.90;;;;;;5135159;27;19934;-58
2021/04/04 02:39:56;;;;;;;;;;;25.00;38.90;;;;;;5135288;27;20379;-58
2021/04/04 02:42:23;;;;;;;;;;;25.00;38.90;;;;;;5135256;27;20362;-58
2021/04/04 02:44:51;;;;;;;;;;;25.00;38.90;;;;;;5135533;27;19908;-58
2021/04/04 02:47:18;;;;;;;;;;;25.00;38.90;;;;;;5116919;27;20006;-59
2021/04/04 02:49:47;;;;;;;;;;;25.00;38.90;;;;;;5134975;27;19994;-58
2021/04/04 02:52:16;;;;;;;;;;;25.00;39.00;;;;;;5135214;27;20005;-59
2021/04/04 02:54:42;;;;;;;;;;;25.00;39.00;;;;;;5134892;27;19915;-58
2021/04/04 02:57:08;;;;;;;;;;;25.00;39.00;;;;;;5134806;27;19911;-58
2021/04/04 02:59:37;;;;;;;;;;;24.90;39.00;;;;;;5135092;27;19912;-59
2021/04/04 03:02:05;;;;;;;;;;;25.10;39.10;;;;;;5116202;27;19914;-58
2021/04/04 03:04:33;;;;;;;;;;;24.90;39.00;;;;;;5134894;27;19996;-58
2021/04/04 03:06:59;;;;;;;;;;;24.90;39.10;;;;;;5130914;27;20365;-59
2021/04/04 03:09:26;;;;;;;;;;;24.90;39.10;;;;;;5134700;27;19911;-59
2021/04/04 03:11:52;;;;;;;;;;;24.90;39.10;;;;;;5134523;27;19991;-58
2021/04/04 03:14:19;;;;;;;;;;;24.90;39.10;;;;;;5134797;27;19929;-58
2021/04/04 03:16:45;;;;;;;;;;;24.90;39.10;;;;;;5134737;27;20365;-59
2021/04/04 03:19:15;;;;;;;;;;;24.90;39.10;;;;;;5134652;27;20253;-58
2021/04/04 03:21:41;;;;;;;;;;;24.80;39.10;;;;;;5134642;27;20010;-59
2021/04/04 03:24:07;;;;;;;;;;;24.80;39.10;;;;;;5134502;27;20368;-59
2021/04/04 03:26:34;;;;;;;;;;;24.80;39.20;;;;;;5134521;27;19988;-58
2021/04/04 03:29:00;;;;;;;;;;;24.80;39.20;;;;;;5134541;27;20019;-58
2021/04/04 03:31:26;;;;;;;;;;;24.80;39.20;;;;;;5134386;27;19911;-58
2021/04/04 03:33:52;;;;;;;;;;;23.90;38.80;;;;;;5134286;27;19918;-59
2021/04/04 03:36:21;;;;;;;;;;;24.80;39.30;;;;;;5134325;27;19946;-58
2021/04/04 03:38:49;;;;;;;;;;;24.80;39.30;;;;;;5134783;27;20284;-60
2021/04/04 03:41:14;;;;;;;;;;;24.70;39.30;;;;;;5134288;27;19914;-58
2021/04/04 03:43:41;;;;;;;;;;;24.70;39.30;;;;;;5134164;27;20281;-58
2021/04/04 03:46:11;;;;;;;;;;;24.70;39.30;;;;;;5134129;27;19908;-58
2021/04/04 03:48:39;;;;;;;;;;;24.70;39.30;;;;;;5134059;27;19911;-59
2021/04/04 03:51:05;;;;;;;;;;;24.70;39.30;;;;;;5134038;27;19916;-59
2021/04/04 03:53:32;;;;;;;;;;;24.70;39.40;;;;;;5133955;27;20006;-59
2021/04/04 03:56:00;;;;;;;;;;;24.70;39.40;;;;;;5133823;27;19911;-59
2021/04/04 03:58:26;;;;;;;;;;;24.70;39.40;;;;;;5134087;27;19911;-58
2021/04/04 04:00:53;;;;;;;;;;;24.60;39.40;;;;;;5133884;27;19930;-58
2021/04/04 04:03:20;;;;;;;;;;;24.60;39.40;;;;;;5115583;27;19921;-57
2021/04/04 04:05:46;;;;;;;;;;;24.60;39.50;;;;;;5133687;27;19911;-57
2021/04/04 04:08:12;;;;;;;;;;;24.60;39.50;;;;;;5133435;27;19907;-58
2021/04/04 04:10:39;;;;;;;;;;;24.60;39.50;;;;;;5133983;27;19939;-58
2021/04/04 04:13:06;;;;;;;;;;;24.60;39.60;;;;;;5133974;27;19915;-58
2021/04/04 04:15:32;;;;;;;;;;;24.60;39.60;;;;;;5133787;27;19945;-58
2021/04/04 04:17:59;;;;;;;;;;;24.60;39.60;;;;;;5133426;27;19907;-58
2021/04/04 04:20:26;;;;;;;;;;;24.50;39.50;;;;;;5115769;27;20234;-59
2021/04/04 04:22:52;;;;;;;;;;;24.60;39.60;;;;;;5133213;27;19976;-58
2021/04/04 04:25:18;;;;;;;;;;;24.50;39.60;;;;;;5098205;27;20295;-59
2021/04/04 04:27:45;;;;;;;;;;;24.50;39.60;;;;;;5133513;27;19908;-58
2021/04/04 04:30:12;;;;;;;;;;;24.50;39.60;;;;;;5133370;27;19911;-58
2021/04/04 04:32:39;;;;;;;;;;;24.50;39.70;;;;;;5133441;28;19934;-58
2021/04/04 04:35:06;;;;;;;;;;;24.50;39.70;;;;;;5133225;28;19907;-58
2021/04/04 04:37:33;;;;;;;;;;;24.50;39.70;;;;;;5133375;28;19912;-59
2021/04/04 04:40:01;;;;;;;;;;;24.50;39.70;;;;;;5133262;28;19914;-58
2021/04/04 04:42:27;;;;;;;;;;;24.40;39.70;;;;;;5133140;28;20361;-60
2021/04/04 04:44:54;;;;;;;;;;;24.40;39.70;;;;;;5133224;28;19914;-58
2021/04/04 04:47:20;;;;;;;;;;;24.40;39.70;;;;;;5133233;28;19918;-58
2021/04/04 04:49:46;;;;;;;;;;;24.40;39.80;;;;;;5133141;28;20121;-58
2021/04/04 04:52:12;;;;;;;;;;;24.40;39.80;;;;;;5133430;28;20345;-59
2021/04/04 04:54:42;;;;;;;;;;;24.40;39.80;;;;;;5129827;28;19919;-58
2021/04/04 04:57:08;;;;;;;;;;;24.40;39.80;;;;;;5133196;28;19920;-58
2021/04/04 04:59:34;;;;;;;;;;;24.30;39.80;;;;;;5133048;28;19908;-60
2021/04/04 05:02:00;;;;;;;;;;;24.30;39.80;;;;;;5133213;28;19968;-60
2021/04/04 05:04:27;;;;;;;;;;;24.30;39.90;;;;;;5133149;28;19915;-59
2021/04/04 05:06:53;;;;;;;;;;;24.30;39.90;;;;;;5133134;28;20393;-60
2021/04/04 05:09:19;;;;;;;;;;;24.30;40.00;;;;;;5133046;28;20356;-60
2021/04/04 05:11:46;;;;;;;;;;;24.30;40.00;;;;;;5133026;28;20368;-59
2021/04/04 05:14:13;;;;;;;;;;;24.20;40.00;;;;;;5133096;28;19907;-60
2021/04/04 05:16:39;;;;;;;;;;;24.20;40.00;;;;;;5133114;28;19911;-59
2021/04/04 05:19:08;;;;;;;;;;;24.20;40.10;;;;;;5133017;28;19911;-60
2021/04/04 05:21:36;;;;;;;;;;;24.20;40.10;;;;;;5134856;27;19927;-59
2021/04/04 05:24:06;;;;;;;;;;;24.20;40.10;;;;;;5137103;27;20377;-59
2021/04/04 05:26:33;;;;;;;;;;;24.20;40.10;;;;;;5137219;27;19918;-59
2021/04/04 05:29:03;;;;;;;;;;;24.20;40.20;;;;;;5136862;27;19911;-59
2021/04/04 05:31:29;;;;;;;;;;;24.20;40.20;;;;;;5136900;27;20272;-59
2021/04/04 05:33:55;;;;;;;;;;;24.20;40.20;;;;;;5136659;27;20360;-59
2021/04/04 05:36:21;;;;;;;;;;;24.20;40.20;;;;;;5136696;27;19918;-59
2021/04/04 05:38:47;;;;;;;;;;;24.20;40.30;;;;;;5136935;27;20273;-59
2021/04/04 05:41:14;;;;;;;;;;;24.20;40.20;;;;;;5136742;27;19911;-57
2021/04/04 05:43:50;;;;;;;;;;;24.20;40.30;;;;;;5136320;27;19918;-59
2021/04/04 05:46:24;;;;;;;;;;;24.20;40.30;;;;;;5136925;27;20034;-59
2021/04/04 05:48:56;;;;;;;;;;;24.20;40.30;;;;;;5136568;27;19950;-60
2021/04/04 05:51:25;;;;;;;;;;;24.20;40.30;;;;;;5136056;27;20002;-59
2021/04/04 05:53:57;;;;;;;;;;;24.10;40.30;;;;;;5136266;27;19907;-59
2021/04/04 05:56:27;;;;;;;;;;;24.20;40.40;;;;;;5136099;27;19912;-59
2021/04/04 05:59:02;;;;;;;;;;;24.10;40.30;;;;;;5136421;27;20387;-60
2021/04/04 06:01:28;;;;;;;;;;;24.10;40.30;;;;;;5136121;27;19919;-59
2021/04/04 06:04:07;;;;;;;;;;;24.10;40.30;;;;;;5135937;27;19915;-57
2021/04/04 06:06:59;;;;;;;;;;;24.10;40.40;;;;;;5098402;28;19916;-58
2021/04/04 06:09:46;;;;;;;;;;;24.10;40.40;;;;;;5070893;28;19912;-58
2021/04/04 06:12:17;;;;;;;;;;;24.10;40.40;;;;;;5098695;28;19911;-59
2021/04/04 06:14:56;;;;;;;;;;;24.10;40.40;;;;;;5115017;28;19947;-57
2021/04/04 06:17:43;;;;;;;;;;;24.10;40.40;;;;;;5114955;28;19918;-57
2021/04/04 06:20:40;;;;;;;;;;;24.10;40.50;;;;;;5114812;28;20010;-58
2021/04/04 06:23:06;;;;;;;;;;;24.10;40.50;;;;;;5086067;28;19928;-58
2021/04/04 06:26:04;;;;;;;;;;;24.10;40.60;;;;;;5083599;28;20270;-58
2021/04/04 06:28:44;;;;;;;;;;;24.10;40.50;;;;;;5049509;28;19923;-57
2021/04/04 06:31:10;;;;;;;;;;;24.00;40.50;;;;;;5102278;28;19919;-59
2021/04/04 06:33:38;;;;;;;;;;;24.00;40.50;;;;;;5114825;28;19911;-58
2021/04/04 06:36:03;;;;;;;;;;;24.00;40.50;;;;;;5096535;28;19911;-59
2021/04/04 06:38:48;;;;;;;;;;;24.00;40.50;;;;;;5114593;28;19912;-59
2021/04/04 06:41:20;;;;;;;;;;;24.00;40.60;;;;;;5114858;28;19915;-59
2021/04/04 06:44:02;;;;;;;;;;;24.00;40.60;;;;;;5101203;28;19920;-60
2021/04/04 06:46:28;;;;;;;;;;;24.00;40.60;;;;;;5094660;28;20694;-59
2021/04/04 06:49:00;;;;;;;;;;;24.00;40.60;;;;;;5094147;28;19913;-59
2021/04/04 06:51:29;;;;;;;;;;;24.00;40.60;;;;;;5093999;28;19935;-58
2021/04/04 06:54:03;;;;;;;;;;;24.00;40.70;;;;;;5094206;28;20443;-58
2021/04/04 06:56:47;;;;;;;;;;;24.00;40.60;;;;;;5093782;28;20370;-58
2021/04/04 06:59:36;;;;;;;;;;;24.00;40.70;;;;;;5093717;28;19999;-58
2021/04/04 07:02:05;;;;;;;;;;;24.00;40.70;;;;;;5077656;28;19912;-58
2021/04/04 07:04:34;;;;;;;;;;;24.00;40.70;;;;;;5114175;28;19942;-58
2021/04/04 07:07:18;;;;;;;;;;;24.00;40.70;;;;;;5113668;28;19912;-59
2021/04/04 07:09:44;;;;;;;;;;;24.00;40.80;;;;;;5113715;28;19911;-58
2021/04/04 07:12:13;;;;;;;;;;;24.10;40.80;;;;;;5113902;28;19923;-59
2021/04/04 07:14:51;;;;;;;;;;;24.10;40.80;;;;;;5113580;28;19920;-58
2021/04/04 07:17:40;;;;;;;;;;;24.10;40.80;;;;;;5095589;28;20326;-56
2021/04/04 07:20:15;;;;;;;;;;;24.10;40.80;;;;;;5113408;28;20028;-58
2021/04/04 07:22:48;;;;;;;;;;;24.10;40.80;;;;;;5113549;28;19924;-58
2021/04/04 07:25:15;;;;;;;;;;;24.20;40.90;;;;;;5113640;28;19998;-58
2021/04/04 07:27:59;;;;;;;;;;;24.20;40.90;;;;;;5112531;28;19923;-58
2021/04/04 07:30:29;;;;;;;;;;;24.20;40.90;;;;;;5113652;28;19912;-58
2021/04/04 07:33:13;;;;;;;;;;;24.20;40.90;;;;;;5113194;28;20014;-58
2021/04/04 07:35:42;;;;;;;;;;;24.20;40.90;;;;;;5112739;28;19959;-59
2021/04/04 07:38:10;;;;;;;;;;;24.20;40.90;;;;;;5112737;28;19950;-58
2021/04/04 07:40:42;;;;;;;;;;;24.30;40.90;;;;;;5095329;28;19915;-58
2021/04/04 07:43:10;;;;;;;;;;;24.30;41.00;;;;;;5112411;28;19915;-59
2021/04/04 07:45:43;;;;;;;;;;;24.30;40.90;;;;;;5112199;28;19911;-58
2021/04/04 07:48:12;;;;;;;;;;;24.30;40.90;;;;;;5093612;28;19912;-58
2021/04/04 07:50:51;;;;;;;;;;;24.30;40.90;;;;;;5113366;28;19991;-59
2021/04/04 07:53:35;;;;;;;;;;;24.30;40.90;;;;;;5113042;28;19912;-58
2021/04/04 07:56:11;;;;;;;;;;;24.40;41.00;;;;;;5104983;28;19916;-58
2021/04/04 07:58:49;;;;;;;;;;;24.40;41.00;;;;;;5112602;28;19919;-59
2021/04/04 08:01:19;;;;;;;;;;;24.40;41.00;;;;;;5112775;28;19912;-59
2021/04/04 08:03:51;;;;;;;;;;;24.40;41.00;;;;;;5112954;28;19919;-59
2021/04/04 08:06:17;;;;;;;;;;;24.50;41.00;;;;;;5112947;28;19919;-59
2021/04/04 08:08:57;;;;;;;;;;;24.50;41.10;;;;;;5112887;28;19912;-59
2021/04/04 08:11:24;;;;;;;;;;;24.50;41.10;;;;;;5112887;28;19912;-59
2021/04/04 08:13:50;;;;;;;;;;;24.50;41.10;;;;;;5113005;28;19908;-60
2021/04/04 08:16:24;;;;;;;;;;;24.60;41.10;;;;;;5112806;28;19918;-59
2021/04/04 08:18:50;;;;;;;;;;;24.60;41.10;;;;;;5112971;28;19919;-58
2021/04/04 08:21:37;;;;;;;;;;;24.60;41.10;;;;;;5112642;28;19915;-59
2021/04/04 08:24:06;;;;;;;;;;;24.60;41.10;;;;;;5112790;28;20341;-58
2021/04/04 08:26:44;;;;;;;;;;;24.70;41.20;;;;;;5112415;28;19919;-58
2021/04/04 08:29:14;;;;;;;;;;;24.70;41.20;;;;;;5112813;28;19918;-58
2021/04/04 08:31:44;;;;;;;;;;;24.70;41.20;;;;;;5100888;28;19912;-58
2021/04/04 08:34:12;;;;;;;;;;;24.80;41.20;;;;;;5074284;28;20266;-58
2021/04/04 08:36:41;;;;;;;;;;;24.90;41.20;;;;;;5112127;28;19912;-58
2021/04/04 08:39:09;;;;;;;;;;;24.90;41.20;;;;;;5112853;28;19912;-58
2021/04/04 08:41:37;;;;;;;;;;;24.90;41.10;;;;;;5123093;28;20030;-59
2021/04/04 08:44:13;;;;;;;;;;;24.90;41.10;;;;;;5094119;28;19919;-58
2021/04/04 08:46:42;;;;;;;;;;;25.00;41.10;;;;;;5112149;28;20289;-56
2021/04/04 08:49:08;;;;;;;;;;;25.00;41.10;;;;;;5112381;28;19916;-57
2021/04/04 08:51:37;;;;;;;;;;;25.10;41.20;;;;;;5112608;28;20002;-58
2021/04/04 08:54:05;;;;;;;;;;;25.10;41.10;;;;;;5112503;28;19998;-58
2021/04/04 08:56:32;;;;;;;;;;;25.10;41.10;;;;;;5116263;28;19943;-58
2021/04/04 08:59:00;;;;;;;;;;;25.20;41.10;;;;;;5116217;27;19919;-58
2021/04/04 09:01:31;;;;;;;;;;;25.20;41.10;;;;;;5116745;28;19918;-58
2021/04/04 09:03:59;;;;;;;;;;;25.30;41.20;;;;;;5115839;28;19994;-58
2021/04/04 09:06:26;;;;;;;;;;;25.30;41.10;;;;;;5116175;27;20365;-59
2021/04/04 09:08:52;;;;;;;;;;;25.30;41.00;;;;;;5116151;27;19918;-58
2021/04/04 09:11:18;;;;;;;;;;;25.40;41.00;;;;;;5116646;27;19916;-59
2021/04/04 09:13:45;;;;;;;;;;;25.40;40.90;;;;;;5115722;28;19912;-59
2021/04/04 09:16:12;;;;;;;;;;;25.50;40.90;;;;;;5116175;28;19958;-58
2021/04/04 09:18:48;;;;;;;;;;;25.50;40.90;;;;;;5116368;28;19912;-59
2021/04/04 09:21:14;;;;;;;;;;;25.50;40.80;;;;;;5116410;28;19951;-59
2021/04/04 09:23:42;;;;;;;;;;;25.60;40.80;;;;;;5116080;28;20382;-59
2021/04/04 09:26:10;;;;;;;;;;;25.60;40.80;;;;;;5116570;28;19960;-58
2021/04/04 09:28:37;;;;;;;;;;;25.70;40.80;;;;;;5116282;28;20360;-59
2021/04/04 09:31:04;;;;;;;;;;;25.70;40.70;;;;;;5116189;28;19918;-59
2021/04/04 09:33:34;;;;;;;;;;;25.80;40.60;;;;;;5116028;28;19912;-59
2021/04/04 09:36:02;;;;;;;;;;;25.80;40.50;;;;;;5097864;28;19922;-58
2021/04/04 09:38:30;;;;;;;;;;;25.90;40.50;;;;;;5116072;28;20010;-58
2021/04/04 09:40:56;;;;;;;;;;;25.90;40.50;;;;;;5116192;28;19908;-58
2021/04/04 09:43:23;;;;;;;;;;;25.90;40.40;;;;;;5115841;28;19916;-58
2021/04/04 09:45:49;;;;;;;;;;;26.00;40.40;;;;;;5115846;28;19911;-58
2021/04/04 09:48:16;;;;;;;;;;;26.00;40.30;;;;;;5115934;28;20357;-58
2021/04/04 09:50:42;;;;;;;;;;;26.10;40.30;;;;;;5115555;28;19947;-59
2021/04/04 09:53:07;;;;;;;;;;;26.10;40.30;;;;;;5115484;28;20380;-59
2021/04/04 09:55:33;;;;;;;;;;;26.10;40.20;;;;;;5115807;28;19912;-59
2021/04/04 09:58:01;;;;;;;;;;;26.20;40.20;;;;;;5097261;28;19935;-59
2021/04/04 10:00:31;;;;;;;;;;;26.30;40.20;;;;;;5115555;28;19959;-60
2021/04/04 10:03:08;;;;;;;;;;;26.30;40.10;;;;;;5115421;28;19923;-59
2021/04/04 10:05:37;;;;;;;;;;;26.30;40.00;;;;;;5115803;28;19908;-59
2021/04/04 10:08:09;;;;;;;;;;;26.40;40.00;;;;;;5114756;28;19923;-59
2021/04/04 10:10:35;;;;;;;;;;;26.50;39.90;;;;;;5115668;28;19992;-58
2021/04/04 10:13:00;;;;;;;;;;;26.50;39.80;;;;;;5115844;28;19973;-58
2021/04/04 10:15:27;;;;;;;;;;;26.60;40.20;;;;;;5115955;28;19920;-57
2021/04/04 10:17:57;;;;;;;;;;;26.60;40.30;;;;;;5116087;28;19935;-58
2021/04/04 10:20:36;;;;;;;;;;;26.60;40.20;;;;;;5099472;28;20068;-58
2021/04/04 10:23:03;;;;;;;;;;;26.60;40.50;;;;;;5077328;28;20453;-58
2021/04/04 10:25:29;;;;;;;;;;;26.60;40.60;;;;;;5095211;28;19994;-58
2021/04/04 10:28:02;;;;;;;;;;;26.60;40.60;;;;;;5095603;28;19985;-58
2021/04/04 10:30:30;;;;;;;;;;;26.60;40.80;;;;;;5095575;28;19925;-58
2021/04/04 10:32:56;;;;;;;;;;;26.50;40.90;;;;;;5095326;28;20357;-58
2021/04/04 10:35:29;;;;;;;;;;;26.60;41.20;;;;;;5095236;28;20551;-58
2021/04/04 10:38:05;;;;;;;;;;;26.60;41.30;;;;;;5095237;28;19995;-58
2021/04/04 10:40:41;;;;;;;;;;;26.60;41.20;;;;;;5095011;28;20438;-58
2021/04/04 10:43:07;;;;;;;;;;;26.60;40.90;;;;;;5095192;28;20297;-58
2021/04/04 10:45:33;;;;;;;;;;;26.50;40.80;;;;;;5095233;28;19915;-58
2021/04/04 10:48:06;;;;;;;;;;;26.50;40.80;;;;;;5095271;28;19916;-58
2021/04/04 10:50:33;;;;;;;;;;;26.50;41.00;;;;;;5094929;28;20362;-57
2021/04/04 10:52:59;;;;;;;;;;;26.40;41.10;;;;;;5095272;28;20282;-58
2021/04/04 10:55:25;;;;;;;;;;;26.40;41.20;;;;;;5094733;28;19919;-57
2021/04/04 10:57:52;;;;;;;;;;;26.30;41.20;;;;;;5094072;28;20366;-58
2021/04/04 11:00:19;;;;;;;;;;;26.30;41.40;;;;;;5093777;28;19960;-58
2021/04/04 11:02:45;;;;;;;;;;;26.30;41.50;;;;;;5093551;28;19916;-58
2021/04/04 11:05:11;;;;;;;;;;;26.40;41.60;;;;;;5093986;28;19912;-57
2021/04/04 11:07:37;;;;;;;;;;;26.40;41.50;;;;;;5094244;28;19916;-57
2021/04/04 11:10:06;;;;;;;;;;;26.50;41.30;;;;;;5094070;28;19920;-58
2021/04/04 11:12:33;;;;;;;;;;;26.60;41.20;;;;;;5093934;28;20003;-58
2021/04/04 11:14:59;;;;;;;;;;;26.70;40.90;;;;;;5094125;28;20316;-57
2021/04/04 11:17:25;;;;;;;;;;;26.80;40.80;;;;;;5093971;28;19951;-58
2021/04/04 11:19:51;;;;;;;;;;;27.00;40.60;;;;;;5093391;28;19990;-58
2021/04/04 11:22:18;;;;;;;;;;;27.10;40.70;;;;;;5093285;28;19927;-58
2021/04/04 11:25:16;;;;;;;;;;;27.20;40.60;;;;;;5093394;28;19916;-60
2021/04/04 11:27:42;;;;;;;;;;;27.40;40.50;;;;;;5030781;28;20371;-59
2021/04/04 11:30:13;;;;;;;;;;;27.60;40.50;;;;;;5031039;28;20004;-59
2021/04/04 11:32:40;;;;;;;;;;;27.80;40.20;;;;;;5030901;28;19914;-60
2021/04/04 11:35:06;;;;;;;;;;;27.90;40.10;;;;;;5031049;28;19909;-59
2021/04/04 11:37:32;;;;;;;;;;;28.10;40.20;;;;;;5030347;28;19913;-60
2021/04/04 11:40:12;;;;;;;;;;;28.30;40.20;;;;;;5030526;28;19913;-59
2021/04/04 11:42:38;;;;;;;;;;;28.50;40.10;;;;;;5035212;28;20315;-59
2021/04/04 11:45:04;;;;;;;;;;;28.80;40.30;;;;;;5045896;28;19978;-59
2021/04/04 11:47:30;;;;;;;;;;;29.00;40.10;;;;;;5036426;28;19996;-60
2021/04/04 11:49:56;;;;;;;;;;;29.20;40.00;;;;;;5032773;28;20040;-60
2021/04/04 11:52:22;;;;;;;;;;;29.50;39.90;;;;;;5031423;28;19913;-54
2021/04/04 11:54:50;;;;;;;;;;;29.80;39.80;;;;;;5043086;28;19913;-54
2021/04/04 11:57:24;;;;;;;;;;;30.00;39.40;;;;;;5051194;28;20274;-53
2021/04/04 11:59:50;;;;;;;;;;;30.20;39.20;;;;;;5041752;28;19917;-53
2021/04/04 12:02:17;;;;;;;;;;;30.40;38.80;;;;;;5014374;28;20409;-53
2021/04/04 12:04:46;;;;;;;;;;;30.60;38.90;;;;;;5090218;28;19957;-54
2021/04/04 12:07:13;;;;;;;;;;;30.90;38.80;;;;;;5108305;28;20278;-52
2021/04/04 12:09:39;;;;;;;;;;;31.10;38.80;;;;;;5104563;27;19912;-53
2021/04/04 12:12:06;;;;;;;;;;;31.30;38.90;;;;;;5112785;28;19911;-53
2021/04/04 12:14:44;;;;;;;;;;;31.50;38.80;;;;;;5113121;28;19912;-62
2021/04/04 12:17:09;;;;;;;;;;;31.60;38.80;;;;;;5094449;28;19912;-54
2021/04/04 12:19:35;;;;;;;;;;;31.80;38.40;;;;;;5112855;28;19965;-54
2021/04/04 12:22:01;;;;;;;;;;;31.90;38.00;;;;;;5112793;28;19919;-54
2021/04/04 12:24:39;;;;;;;;;;;31.80;37.70;;;;;;5112868;28;19996;-55
2021/04/04 12:27:07;;;;;;;;;;;31.70;37.50;;;;;;5094839;28;19912;-54
2021/04/04 12:29:59;;;;;;;;;;;31.50;37.40;;;;;;5112580;28;19916;-55
2021/04/04 12:32:29;;;;;;;;;;;31.40;37.30;;;;;;5107591;28;20315;-54
2021/04/04 12:34:57;;;;;;;;;;;31.10;37.50;;;;;;5113143;28;20245;-54
2021/04/04 12:37:25;;;;;;;;;;;30.90;37.70;;;;;;5112686;28;19912;-54
2021/04/04 12:39:51;;;;;;;;;;;30.70;37.90;;;;;;5112739;28;20433;-54
2021/04/04 12:42:18;;;;;;;;;;;30.60;38.30;;;;;;5112740;28;19923;-54
2021/04/04 12:44:45;;;;;;;;;;;30.40;38.50;;;;;;5112824;28;20428;-54
2021/04/04 12:47:15;;;;;;;;;;;30.30;38.80;;;;;;5112463;28;19918;-54
2021/04/04 12:49:42;;;;;;;;;;;30.10;39.10;;;;;;5112839;28;19923;-54
2021/04/04 12:52:08;;;;;;;;;;;29.90;39.40;;;;;;5112190;28;19919;-54
2021/04/04 12:54:34;;;;;;;;;;;29.80;39.60;;;;;;5112328;28;19908;-58
2021/04/04 12:57:00;;;;;;;;;;;29.70;39.80;;;;;;5112623;28;19919;-59
2021/04/04 12:59:26;;;;;;;;;;;29.60;40.00;;;;;;5093693;28;19927;-58
2021/04/04 13:01:55;;;;;;;;;;;29.50;40.10;;;;;;5112468;28;19911;-57
2021/04/04 13:04:22;;;;;;;;;;;29.40;40.40;;;;;;5112990;28;19916;-58
2021/04/04 13:06:48;;;;;;;;;;;29.30;40.50;;;;;;5112876;28;19912;-58
2021/04/04 13:09:15;;;;;;;;;;;29.20;40.60;;;;;;5112694;28;19912;-58
2021/04/04 13:11:42;;;;;;;;;;;29.20;40.90;;;;;;5113248;28;20366;-58
2021/04/04 13:14:13;;;;;;;;;;;29.10;41.00;;;;;;5112975;28;20280;-59
2021/04/04 13:16:39;;;;;;;;;;;29.00;41.00;;;;;;5113790;28;20339;-58
2021/04/04 13:19:05;;;;;;;;;;;29.00;41.20;;;;;;5113026;28;19912;-58
2021/04/04 13:21:31;;;;;;;;;;;28.90;41.30;;;;;;5094698;28;19964;-58
2021/04/04 13:24:02;;;;;;;;;;;28.90;41.50;;;;;;5112870;28;20392;-58
2021/04/04 13:26:33;;;;;;;;;;;28.80;41.50;;;;;;5094512;28;19916;-58
2021/04/04 13:29:00;;;;;;;;;;;28.80;41.50;;;;;;5113020;28;19962;-58
2021/04/04 13:31:27;;;;;;;;;;;28.70;41.60;;;;;;5112706;28;19908;-58
2021/04/04 13:34:05;;;;;;;;;;;29.00;41.90;;;;;;5113272;28;20333;-58
2021/04/04 13:36:32;;;;;;;;;;;28.60;41.80;;;;;;5112673;28;19912;-58
2021/04/04 13:38:58;;;;;;;;;;;28.60;41.90;;;;;;5112873;28;20006;-59
2021/04/04 13:41:24;;;;;;;;;;;28.60;42.00;;;;;;5112625;28;19962;-59
2021/04/04 13:43:54;;;;;;;;;;;28.50;42.10;;;;;;5116521;28;19948;-58
2021/04/04 13:46:46;;;;;;;;;;;28.50;42.20;;;;;;5116296;27;19919;-58
2021/04/04 13:49:13;;;;;;;;;;;28.50;42.10;;;;;;5112259;28;20326;-58
2021/04/04 13:51:40;;;;;;;;;;;28.50;42.20;;;;;;5116458;28;19934;-58
2021/04/04 13:54:21;;;;;;;;;;;28.50;42.30;;;;;;5116298;28;19907;-59
2021/04/04 13:56:51;;;;;;;;;;;28.40;42.40;;;;;;5095837;28;19920;-57
2021/04/04 13:59:21;;;;;;;;;;;28.40;42.50;;;;;;5096885;28;19915;-58
2021/04/04 14:01:47;;;;;;;;;;;28.40;42.60;;;;;;5116064;28;20006;-59
2021/04/04 14:04:14;;;;;;;;;;;28.40;42.70;;;;;;5116063;28;20002;-58
2021/04/04 14:06:45;;;;;;;;;;;28.40;42.70;;;;;;5115684;28;19919;-59
2021/04/04 14:09:11;;;;;;;;;;;28.40;42.80;;;;;;5115819;28;20396;-58
2021/04/04 14:11:37;;;;;;;;;;;28.30;42.90;;;;;;5115606;28;19919;-58
2021/04/04 14:14:04;;;;;;;;;;;28.40;43.00;;;;;;5115451;28;19912;-58
2021/04/04 14:16:30;;;;;;;;;;;28.40;43.20;;;;;;5115890;28;19990;-57
2021/04/04 14:18:56;;;;;;;;;;;28.30;43.20;;;;;;5115673;28;20011;-58
2021/04/04 14:21:22;;;;;;;;;;;28.30;43.20;;;;;;5116408;28;19916;-58
2021/04/04 14:23:48;;;;;;;;;;;28.30;43.40;;;;;;5115116;28;20292;-58
2021/04/04 14:26:14;;;;;;;;;;;28.30;43.50;;;;;;5115844;28;19912;-58